sensor_id;sensor_type;location;lat;lon;timestamp;temperature;humidity
16995;DHT22;8614;48.522;9.206;2023-02-01T03:00:58;4.60;99.90
16995;DHT22;8614;48.522;9.206;2023-02-01T03:03:44;4.60;99.90
16995;DHT22;8614;48.522;9.206;2023-02-01T03:06:28;4.60;99.90
16995;DHT22;8614;48.522;9.206;2023-02-01T03:08:57;4.60;99.90
16995;DHT22;8614;48.522;9.206;2023-02-01T03:11:25;4.60;99.90
16995;DHT22;8614;48.522;9.206;2023-02-01T03:14:15;4.60;99.90
16995;DHT22;8614;48.522;9.206;2023-02-01T03:16:47;4.60;99.90
16995;DHT22;8614;48.522;9.206;2023-02-01T03:19:19;4.60;99.90
16995;DHT22;8614;48.522;9.206;2023-02-01T03:21:50;4.60;99.90
16995;DHT22;8614;48.522;9.206;2023-02-01T03:24:24;4.50;99.90
16995;DHT22;8614;48.522;9.206;2023-02-01T03:27:05;4.60;99.90
16995;DHT22;8614;48.522;9.206;2023-02-01T03:29:38;4.60;99.90
16995;DHT22;8614;48.522;9.206;2023-02-01T03:32:07;4.60;99.90
16995;DHT22;8614;48.522;9.206;2023-02-01T03:34:36;4.60;99.90
16995;DHT22;8614;48.522;9.206;2023-02-01T03:37:06;4.50;99.90
16995;DHT22;8614;48.522;9.206;2023-02-01T03:39:39;4.60;99.90
16995;DHT22;8614;48.522;9.206;2023-02-01T03:42:12;4.60;99.90
16995;DHT22;8614;48.522;9.206;2023-02-01T03:44:46;4.60;99.90
16995;DHT22;8614;48.522;9.206;2023-02-01T03:47:20;4.60;99.90
16995;DHT22;8614;48.522;9.206;2023-02-01T03:49:54;4.60;99.90
16995;DHT22;8614;48.522;9.206;2023-02-01T03:52:25;4.60;99.90
16995;DHT22;8614;48.522;9.206;2023-02-01T03:54:55;4.60;99.90
16995;DHT22;8614;48.522;9.206;2023-02-01T03:57:27;4.60;99.90
16995;DHT22;8614;48.522;9.206;2023-02-01T04:00:04;4.50;99.90
16995;DHT22;8614;48.522;9.206;2023-02-01T04:02:40;4.50;99.90
16995;DHT22;8614;48.522;9.206;2023-02-01T04:05:08;4.60;99.90
16995;DHT22;8614;48.522;9.206;2023-02-01T04:07:37;4.60;99.90
16995;DHT22;8614;48.522;9.206;2023-02-01T04:10:05;4.60;99.90
16995;DHT22;8614;48.522;9.206;2023-02-01T04:12:32;4.60;99.90
16995;DHT22;8614;48.522;9.206;2023-02-01T04:14:58;4.60;99.90
16995;DHT22;8614;48.522;9.206;2023-02-01T04:17:25;4.50;99.90
16995;DHT22;8614;48.522;9.206;2023-02-01T04:19:53;4.60;99.90
16995;DHT22;8614;48.522;9.206;2023-02-01T04:22:21;4.60;99.90
16995;DHT22;8614;48.522;9.206;2023-02-01T04:24:48;4.60;99.90
16995;DHT22;8614;48.522;9.206;2023-02-01T04:27:15;4.60;99.90
16995;DHT22;8614;48.522;9.206;2023-02-01T04:29:42;4.50;99.90
16995;DHT22;8614;48.522;9.206;2023-02-01T04:32:10;4.60;99.90
16995;DHT22;8614;48.522;9.206;2023-02-01T04:34:37;4.50;99.90
16995;DHT22;8614;48.522;9.206;2023-02-01T04:37:05;4.50;99.90
16995;DHT22;8614;48.522;9.206;2023-02-01T04:39:32;4.50;99.90
16995;DHT22;8614;48.522;9.206;2023-02-01T04:41:59;4.50;99.90
16995;DHT22;8614;48.522;9.206;2023-02-01T04:44:26;4.50;99.90
16995;DHT22;8614;48.522;9.206;2023-02-01T04:46:53;4.50;99.90
16995;DHT22;8614;48.522;9.206;2023-02-01T04:49:20;4.50;99.90
16995;DHT22;8614;48.522;9.206;2023-02-01T04:51:47;4.50;99.90
16995;DHT22;8614;48.522;9.206;2023-02-01T04:54:15;4.50;99.90
16995;DHT22;8614;48.522;9.206;2023-02-01T04:56:42;4.50;99.90
16995;DHT22;8614;48.522;9.206;2023-02-01T04:59:10;4.50;99.90
16995;DHT22;8614;48.522;9.206;2023-02-01T05:01:37;4.50;99.90
16995;DHT22;8614;48.522;9.206;2023-02-01T05:04:04;4.50;99.90
16995;DHT22;8614;48.522;9.206;2023-02-01T05:06:31;4.50;99.90
16995;DHT22;8614;48.522;9.206;2023-02-01T05:08:57;4.50;99.90
16995;DHT22;8614;48.522;9.206;2023-02-01T05:11:25;4.50;99.90
16995;DHT22;8614;48.522;9.206;2023-02-01T05:14:10;4.50;99.90
16995;DHT22;8614;48.522;9.206;2023-02-01T05:16:36;4.50;99.90
16995;DHT22;8614;48.522;9.206;2023-02-01T05:19:03;4.50;99.90
16995;DHT22;8614;48.522;9.206;2023-02-01T05:21:30;4.50;99.90
16995;DHT22;8614;48.522;9.206;2023-02-01T05:23:57;4.50;99.90
16995;DHT22;8614;48.522;9.206;2023-02-01T05:26:37;4.50;99.90
16995;DHT22;8614;48.522;9.206;2023-02-01T05:29:04;4.50;99.90
16995;DHT22;8614;48.522;9.206;2023-02-01T05:31:31;4.50;99.90
16995;DHT22;8614;48.522;9.206;2023-02-01T05:33:58;4.50;99.90
16995;DHT22;8614;48.522;9.206;2023-02-01T05:36:25;4.50;99.90
16995;DHT22;8614;48.522;9.206;2023-02-01T05:38:52;4.50;99.90
16995;DHT22;8614;48.522;9.206;2023-02-01T05:41:19;4.50;99.90
16995;DHT22;8614;48.522;9.206;2023-02-01T05:43:47;4.50;99.90
16995;DHT22;8614;48.522;9.206;2023-02-01T05:46:14;4.50;99.90
16995;DHT22;8614;48.522;9.206;2023-02-01T05:48:41;4.50;99.90
16995;DHT22;8614;48.522;9.206;2023-02-01T05:51:09;4.50;99.90
16995;DHT22;8614;48.522;9.206;2023-02-01T05:53:36;4.60;99.90
16995;DHT22;8614;48.522;9.206;2023-02-01T05:56:03;4.50;99.90
16995;DHT22;8614;48.522;9.206;2023-02-01T05:58:30;4.60;99.90
16995;DHT22;8614;48.522;9.206;2023-02-01T06:01:00;4.60;99.90
16995;DHT22;8614;48.522;9.206;2023-02-01T06:03:27;4.60;99.90
16995;DHT22;8614;48.522;9.206;2023-02-01T06:05:54;4.60;99.90
16995;DHT22;8614;48.522;9.206;2023-02-01T06:08:21;4.60;99.90
16995;DHT22;8614;48.522;9.206;2023-02-01T06:10:49;4.70;99.90
16995;DHT22;8614;48.522;9.206;2023-02-01T06:13:17;4.70;99.90
16995;DHT22;8614;48.522;9.206;2023-02-01T06:15:45;4.70;99.90
16995;DHT22;8614;48.522;9.206;2023-02-01T06:18:13;4.70;99.90
16995;DHT22;8614;48.522;9.206;2023-02-01T06:20:41;4.70;99.90
16995;DHT22;8614;48.522;9.206;2023-02-01T06:23:08;4.70;99.90
16995;DHT22;8614;48.522;9.206;2023-02-01T06:25:34;4.70;99.90
16995;DHT22;8614;48.522;9.206;2023-02-01T06:28:03;4.70;99.90
16995;DHT22;8614;48.522;9.206;2023-02-01T06:30:31;4.70;99.90
16995;DHT22;8614;48.522;9.206;2023-02-01T06:32:58;4.70;99.90
16995;DHT22;8614;48.522;9.206;2023-02-01T06:35:26;4.70;99.90
16995;DHT22;8614;48.522;9.206;2023-02-01T06:37:53;4.80;99.90
16995;DHT22;8614;48.522;9.206;2023-02-01T06:40:20;4.80;99.90
16995;DHT22;8614;48.522;9.206;2023-02-01T06:42:48;4.80;99.90
16995;DHT22;8614;48.522;9.206;2023-02-01T06:45:15;4.80;99.90
16995;DHT22;8614;48.522;9.206;2023-02-01T06:47:42;4.80;99.90
16995;DHT22;8614;48.522;9.206;2023-02-01T06:50:09;4.70;99.90
16995;DHT22;8614;48.522;9.206;2023-02-01T06:52:38;4.80;99.90
16995;DHT22;8614;48.522;9.206;2023-02-01T06:55:05;4.70;99.90
16995;DHT22;8614;48.522;9.206;2023-02-01T06:57:32;4.70;99.90
16995;DHT22;8614;48.522;9.206;2023-02-01T07:00:01;4.60;99.90
16995;DHT22;8614;48.522;9.206;2023-02-01T07:02:28;4.60;99.90
16995;DHT22;8614;48.522;9.206;2023-02-01T07:04:55;4.60;99.90
16995;DHT22;8614;48.522;9.206;2023-02-01T07:07:22;4.60;99.90
16995;DHT22;8614;48.522;9.206;2023-02-01T07:09:50;4.50;99.90
16995;DHT22;8614;48.522;9.206;2023-02-01T07:12:18;4.50;99.90
16995;DHT22;8614;48.522;9.206;2023-02-01T07:14:45;4.50;99.90
16995;DHT22;8614;48.522;9.206;2023-02-01T07:17:11;4.50;99.90
16995;DHT22;8614;48.522;9.206;2023-02-01T07:19:38;4.50;99.90
16995;DHT22;8614;48.522;9.206;2023-02-01T07:22:05;4.50;99.90
16995;DHT22;8614;48.522;9.206;2023-02-01T07:24:33;4.50;99.90
16995;DHT22;8614;48.522;9.206;2023-02-01T07:27:01;4.50;99.90
16995;DHT22;8614;48.522;9.206;2023-02-01T07:29:28;4.50;99.90
16995;DHT22;8614;48.522;9.206;2023-02-01T07:31:55;4.50;99.90
16995;DHT22;8614;48.522;9.206;2023-02-01T07:34:22;4.60;99.90
16995;DHT22;8614;48.522;9.206;2023-02-01T07:36:48;4.60;99.90
16995;DHT22;8614;48.522;9.206;2023-02-01T07:39:15;4.60;99.90
16995;DHT22;8614;48.522;9.206;2023-02-01T07:41:42;4.70;99.90
16995;DHT22;8614;48.522;9.206;2023-02-01T07:44:13;4.70;99.90
16995;DHT22;8614;48.522;9.206;2023-02-01T07:46:40;4.70;99.90
16995;DHT22;8614;48.522;9.206;2023-02-01T07:49:08;4.70;99.90
16995;DHT22;8614;48.522;9.206;2023-02-01T07:51:35;4.70;99.90
16995;DHT22;8614;48.522;9.206;2023-02-01T07:54:02;4.70;99.90
16995;DHT22;8614;48.522;9.206;2023-02-01T07:56:29;4.70;99.90
16995;DHT22;8614;48.522;9.206;2023-02-01T07:58:56;4.70;99.90
16995;DHT22;8614;48.522;9.206;2023-02-01T08:01:28;4.80;99.90
16995;DHT22;8614;48.522;9.206;2023-02-01T08:03:55;4.80;99.90
16995;DHT22;8614;48.522;9.206;2023-02-01T08:06:23;4.90;99.90
16995;DHT22;8614;48.522;9.206;2023-02-01T08:08:50;5.00;99.90
16995;DHT22;8614;48.522;9.206;2023-02-01T08:11:18;5.00;99.90
16995;DHT22;8614;48.522;9.206;2023-02-01T08:13:46;5.10;99.90
16995;DHT22;8614;48.522;9.206;2023-02-01T08:16:15;5.10;99.90
16995;DHT22;8614;48.522;9.206;2023-02-01T08:18:44;5.20;99.90
16995;DHT22;8614;48.522;9.206;2023-02-01T08:21:12;5.20;99.90
16995;DHT22;8614;48.522;9.206;2023-02-01T08:23:40;5.20;99.90
16995;DHT22;8614;48.522;9.206;2023-02-01T08:26:09;5.20;99.90
16995;DHT22;8614;48.522;9.206;2023-02-01T08:28:37;5.20;99.90
16995;DHT22;8614;48.522;9.206;2023-02-01T08:31:05;5.30;99.90
16995;DHT22;8614;48.522;9.206;2023-02-01T08:33:32;5.30;99.90
16995;DHT22;8614;48.522;9.206;2023-02-01T08:36:02;5.30;99.90
16995;DHT22;8614;48.522;9.206;2023-02-01T08:38:29;5.40;99.90
16995;DHT22;8614;48.522;9.206;2023-02-01T08:40:56;5.40;99.90
16995;DHT22;8614;48.522;9.206;2023-02-01T08:43:23;5.40;99.90
16995;DHT22;8614;48.522;9.206;2023-02-01T08:45:53;5.50;99.90
16995;DHT22;8614;48.522;9.206;2023-02-01T08:48:20;5.50;99.90
16995;DHT22;8614;48.522;9.206;2023-02-01T08:50:47;5.50;99.90
16995;DHT22;8614;48.522;9.206;2023-02-01T08:53:15;5.60;99.90
16995;DHT22;8614;48.522;9.206;2023-02-01T08:55:42;5.70;99.90
16995;DHT22;8614;48.522;9.206;2023-02-01T08:58:09;5.80;99.90
16995;DHT22;8614;48.522;9.206;2023-02-01T09:00:35;6.00;99.90
16995;DHT22;8614;48.522;9.206;2023-02-01T09:03:02;6.20;99.90
16995;DHT22;8614;48.522;9.206;2023-02-01T09:05:29;6.20;99.90
16995;DHT22;8614;48.522;9.206;2023-02-01T09:07:56;6.10;99.90
16995;DHT22;8614;48.522;9.206;2023-02-01T09:10:24;6.10;99.90
16995;DHT22;8614;48.522;9.206;2023-02-01T09:12:51;6.00;99.90
16995;DHT22;8614;48.522;9.206;2023-02-01T09:15:18;5.90;99.90
16995;DHT22;8614;48.522;9.206;2023-02-01T09:17:45;5.80;99.90
16995;DHT22;8614;48.522;9.206;2023-02-01T09:20:12;5.80;99.90
16995;DHT22;8614;48.522;9.206;2023-02-01T09:22:39;5.70;99.90
16995;DHT22;8614;48.522;9.206;2023-02-01T09:25:07;5.60;99.90
16995;DHT22;8614;48.522;9.206;2023-02-01T09:27:36;5.60;99.90
16995;DHT22;8614;48.522;9.206;2023-02-01T09:30:03;5.50;99.90
16995;DHT22;8614;48.522;9.206;2023-02-01T09:32:31;5.50;99.90
16995;DHT22;8614;48.522;9.206;2023-02-01T09:34:57;5.40;99.90
16995;DHT22;8614;48.522;9.206;2023-02-01T09:37:24;5.40;99.90
16995;DHT22;8614;48.522;9.206;2023-02-01T09:39:51;5.40;99.90
16995;DHT22;8614;48.522;9.206;2023-02-01T09:42:34;5.40;99.90
16995;DHT22;8614;48.522;9.206;2023-02-01T09:45:15;5.40;99.90
16995;DHT22;8614;48.522;9.206;2023-02-01T09:47:47;5.40;99.90
16995;DHT22;8614;48.522;9.206;2023-02-01T09:50:18;5.50;99.90
16995;DHT22;8614;48.522;9.206;2023-02-01T09:52:51;5.50;99.90
16995;DHT22;8614;48.522;9.206;2023-02-01T09:55:21;5.50;99.90
16995;DHT22;8614;48.522;9.206;2023-02-01T09:57:53;5.60;99.90
16995;DHT22;8614;48.522;9.206;2023-02-01T10:00:27;5.70;99.90
16995;DHT22;8614;48.522;9.206;2023-02-01T10:02:56;5.70;99.90
16995;DHT22;8614;48.522;9.206;2023-02-01T10:05:37;5.80;99.90
16995;DHT22;8614;48.522;9.206;2023-02-01T10:08:12;5.90;99.90
16995;DHT22;8614;48.522;9.206;2023-02-01T10:10:45;6.00;99.90
16995;DHT22;8614;48.522;9.206;2023-02-01T10:13:31;6.00;99.90
16995;DHT22;8614;48.522;9.206;2023-02-01T10:16:12;6.10;99.90
16995;DHT22;8614;48.522;9.206;2023-02-01T10:19:01;6.10;99.90
16995;DHT22;8614;48.522;9.206;2023-02-01T10:21:42;6.10;99.90
16995;DHT22;8614;48.522;9.206;2023-02-01T10:24:20;6.20;99.90
16995;DHT22;8614;48.522;9.206;2023-02-01T10:26:53;6.10;99.90
16995;DHT22;8614;48.522;9.206;2023-02-01T10:29:25;6.10;99.90
16995;DHT22;8614;48.522;9.206;2023-02-01T10:31:54;6.10;99.90
16995;DHT22;8614;48.522;9.206;2023-02-01T10:34:24;6.00;99.90
16995;DHT22;8614;48.522;9.206;2023-02-01T10:36:55;6.00;99.90
16995;DHT22;8614;48.522;9.206;2023-02-01T10:39:22;6.00;99.90
16995;DHT22;8614;48.522;9.206;2023-02-01T10:41:49;6.00;99.90
16995;DHT22;8614;48.522;9.206;2023-02-01T10:44:19;6.00;99.90
16995;DHT22;8614;48.522;9.206;2023-02-01T10:46:48;6.00;99.90
16995;DHT22;8614;48.522;9.206;2023-02-01T10:49:18;6.10;99.90
16995;DHT22;8614;48.522;9.206;2023-02-01T10:51:51;6.10;99.90
16995;DHT22;8614;48.522;9.206;2023-02-01T10:54:20;6.10;99.90
16995;DHT22;8614;48.522;9.206;2023-02-01T10:56:48;6.10;99.90
16995;DHT22;8614;48.522;9.206;2023-02-01T10:59:17;6.10;99.90
16995;DHT22;8614;48.522;9.206;2023-02-01T11:01:46;6.10;99.90
16995;DHT22;8614;48.522;9.206;2023-02-01T11:04:14;6.10;99.90
16995;DHT22;8614;48.522;9.206;2023-02-01T11:06:44;6.20;99.90
16995;DHT22;8614;48.522;9.206;2023-02-01T11:09:18;6.10;99.90
16995;DHT22;8614;48.522;9.206;2023-02-01T11:11:57;6.10;99.90
16995;DHT22;8614;48.522;9.206;2023-02-01T11:14:35;6.10;99.90
16995;DHT22;8614;48.522;9.206;2023-02-01T11:17:17;6.10;99.90
16995;DHT22;8614;48.522;9.206;2023-02-01T11:19:56;6.10;99.90
16995;DHT22;8614;48.522;9.206;2023-02-01T11:22:26;6.10;99.90
16995;DHT22;8614;48.522;9.206;2023-02-01T11:24:55;6.10;99.90
16995;DHT22;8614;48.522;9.206;2023-02-01T11:27:23;6.00;99.90
16995;DHT22;8614;48.522;9.206;2023-02-01T11:29:52;6.00;99.90
16995;DHT22;8614;48.522;9.206;2023-02-01T11:32:21;6.00;99.90
16995;DHT22;8614;48.522;9.206;2023-02-01T11:34:52;6.00;99.90
16995;DHT22;8614;48.522;9.206;2023-02-01T11:37:21;6.00;99.90
16995;DHT22;8614;48.522;9.206;2023-02-01T11:39:57;6.00;99.90
16995;DHT22;8614;48.522;9.206;2023-02-01T11:42:25;6.00;99.90
16995;DHT22;8614;48.522;9.206;2023-02-01T11:45:17;6.00;99.90
16995;DHT22;8614;48.522;9.206;2023-02-01T11:47:44;6.00;99.90
16995;DHT22;8614;48.522;9.206;2023-02-01T11:50:15;6.10;99.90
16995;DHT22;8614;48.522;9.206;2023-02-01T11:53:02;6.10;99.90
16995;DHT22;8614;48.522;9.206;2023-02-01T11:55:46;6.10;99.90
16995;DHT22;8614;48.522;9.206;2023-02-01T11:58:27;6.10;99.90
16995;DHT22;8614;48.522;9.206;2023-02-01T12:01:13;6.20;99.90
16995;DHT22;8614;48.522;9.206;2023-02-01T12:07:03;6.30;99.90
16995;DHT22;8614;48.522;9.206;2023-02-01T12:09:45;6.30;99.90
16995;DHT22;8614;48.522;9.206;2023-02-01T12:12:21;6.30;99.90
16995;DHT22;8614;48.522;9.206;2023-02-01T12:15:09;6.40;99.90
16995;DHT22;8614;48.522;9.206;2023-02-01T12:17:57;6.50;99.90
16995;DHT22;8614;48.522;9.206;2023-02-01T12:20:49;6.50;99.90
16995;DHT22;8614;48.522;9.206;2023-02-01T12:23:26;6.50;99.90
16995;DHT22;8614;48.522;9.206;2023-02-01T12:26:05;6.50;99.90
16995;DHT22;8614;48.522;9.206;2023-02-01T12:32:07;6.40;99.90
16995;DHT22;8614;48.522;9.206;2023-02-01T12:34:48;6.30;99.90
16995;DHT22;8614;48.522;9.206;2023-02-01T12:37:27;6.30;99.90
16995;DHT22;8614;48.522;9.206;2023-02-01T12:40:02;6.30;99.90
16995;DHT22;8614;48.522;9.206;2023-02-01T12:42:36;6.30;99.90
16995;DHT22;8614;48.522;9.206;2023-02-01T12:45:12;6.20;99.90
16995;DHT22;8614;48.522;9.206;2023-02-01T12:47:44;6.20;99.90
16995;DHT22;8614;48.522;9.206;2023-02-01T12:50:20;6.20;99.90
16995;DHT22;8614;48.522;9.206;2023-02-01T12:52:48;6.10;99.90
16995;DHT22;8614;48.522;9.206;2023-02-01T12:55:19;6.10;99.90
16995;DHT22;8614;48.522;9.206;2023-02-01T12:57:51;6.10;99.90
16995;DHT22;8614;48.522;9.206;2023-02-01T13:00:27;6.10;99.90
16995;DHT22;8614;48.522;9.206;2023-02-01T13:03:00;6.10;99.90
16995;DHT22;8614;48.522;9.206;2023-02-01T13:05:33;6.10;99.90
16995;DHT22;8614;48.522;9.206;2023-02-01T13:08:04;6.10;99.90
16995;DHT22;8614;48.522;9.206;2023-02-01T13:10:34;6.10;99.90
16995;DHT22;8614;48.522;9.206;2023-02-01T13:13:10;6.10;99.90
16995;DHT22;8614;48.522;9.206;2023-02-01T13:15:43;6.00;99.90
16995;DHT22;8614;48.522;9.206;2023-02-01T13:18:18;6.00;99.90
16995;DHT22;8614;48.522;9.206;2023-02-01T13:20:49;6.00;99.90
16995;DHT22;8614;48.522;9.206;2023-02-01T13:23:24;6.00;99.90
16995;DHT22;8614;48.522;9.206;2023-02-01T13:25:53;6.00;99.90
16995;DHT22;8614;48.522;9.206;2023-02-01T13:28:25;5.90;99.90
16995;DHT22;8614;48.522;9.206;2023-02-01T13:31:09;6.00;99.90
16995;DHT22;8614;48.522;9.206;2023-02-01T13:33:55;5.90;99.90
16995;DHT22;8614;48.522;9.206;2023-02-01T13:36:42;5.90;99.90
16995;DHT22;8614;48.522;9.206;2023-02-01T13:39:50;5.90;99.90
16995;DHT22;8614;48.522;9.206;2023-02-01T13:42:22;5.90;99.90
16995;DHT22;8614;48.522;9.206;2023-02-01T13:44:51;5.90;99.90
16995;DHT22;8614;48.522;9.206;2023-02-01T13:47:25;5.90;99.90
16995;DHT22;8614;48.522;9.206;2023-02-01T13:49:54;5.90;99.90
16995;DHT22;8614;48.522;9.206;2023-02-01T13:52:31;5.80;99.90
16995;DHT22;8614;48.522;9.206;2023-02-01T13:55:23;5.80;99.90
16995;DHT22;8614;48.522;9.206;2023-02-01T13:57:58;5.90;99.90
16995;DHT22;8614;48.522;9.206;2023-02-01T14:00:28;5.90;99.90
16995;DHT22;8614;48.522;9.206;2023-02-01T14:03:10;5.90;99.90
16995;DHT22;8614;48.522;9.206;2023-02-01T14:09:18;6.00;99.90
16995;DHT22;8614;48.522;9.206;2023-02-01T14:11:49;6.00;99.90
16995;DHT22;8614;48.522;9.206;2023-02-01T14:14:50;6.00;99.90
16995;DHT22;8614;48.522;9.206;2023-02-01T14:17:32;6.00;99.90
16995;DHT22;8614;48.522;9.206;2023-02-01T14:23:23;5.90;99.90
16995;DHT22;8614;48.522;9.206;2023-02-01T14:26:18;5.90;99.90
16995;DHT22;8614;48.522;9.206;2023-02-01T14:28:51;5.80;99.90
16995;DHT22;8614;48.522;9.206;2023-02-01T14:31:34;5.80;99.90
16995;DHT22;8614;48.522;9.206;2023-02-01T14:34:05;5.80;99.90
16995;DHT22;8614;48.522;9.206;2023-02-01T14:36:44;5.80;99.90
16995;DHT22;8614;48.522;9.206;2023-02-01T14:39:26;5.80;99.90
16995;DHT22;8614;48.522;9.206;2023-02-01T14:41:56;5.80;99.90
16995;DHT22;8614;48.522;9.206;2023-02-01T14:44:27;5.90;99.90
16995;DHT22;8614;48.522;9.206;2023-02-01T14:50:31;5.90;99.90
16995;DHT22;8614;48.522;9.206;2023-02-01T14:53:20;5.90;99.90
16995;DHT22;8614;48.522;9.206;2023-02-01T14:55:52;5.90;99.90
16995;DHT22;8614;48.522;9.206;2023-02-01T14:58:32;5.90;99.90
16995;DHT22;8614;48.522;9.206;2023-02-01T15:01:03;5.80;99.90
16995;DHT22;8614;48.522;9.206;2023-02-01T15:03:41;5.80;99.90
16995;DHT22;8614;48.522;9.206;2023-02-01T15:06:21;5.80;99.90
16995;DHT22;8614;48.522;9.206;2023-02-01T15:08:53;5.80;99.90
16995;DHT22;8614;48.522;9.206;2023-02-01T15:11:22;5.80;99.90
16995;DHT22;8614;48.522;9.206;2023-02-01T15:13:50;5.70;99.90
16995;DHT22;8614;48.522;9.206;2023-02-01T15:16:20;5.70;99.90
16995;DHT22;8614;48.522;9.206;2023-02-01T15:18:50;5.70;99.90
16995;DHT22;8614;48.522;9.206;2023-02-01T15:21:42;5.70;99.90
16995;DHT22;8614;48.522;9.206;2023-02-01T15:24:13;5.80;99.90
16995;DHT22;8614;48.522;9.206;2023-02-01T15:26:42;5.80;99.90
16995;DHT22;8614;48.522;9.206;2023-02-01T15:29:11;5.80;99.90
16995;DHT22;8614;48.522;9.206;2023-02-01T15:31:40;5.80;99.90
16995;DHT22;8614;48.522;9.206;2023-02-01T15:34:08;5.80;99.90
16995;DHT22;8614;48.522;9.206;2023-02-01T15:36:35;5.80;99.90
16995;DHT22;8614;48.522;9.206;2023-02-01T15:39:17;5.80;99.90
16995;DHT22;8614;48.522;9.206;2023-02-01T15:41:52;5.80;99.90
16995;DHT22;8614;48.522;9.206;2023-02-01T15:44:28;5.80;99.90
16995;DHT22;8614;48.522;9.206;2023-02-01T15:46:59;5.80;99.90
16995;DHT22;8614;48.522;9.206;2023-02-01T15:49:29;5.70;99.90
16995;DHT22;8614;48.522;9.206;2023-02-01T15:51:59;5.70;99.90
16995;DHT22;8614;48.522;9.206;2023-02-01T15:54:28;5.70;99.90
16995;DHT22;8614;48.522;9.206;2023-02-01T15:57:00;5.70;99.90
16995;DHT22;8614;48.522;9.206;2023-02-01T15:59:31;5.70;99.90
16995;DHT22;8614;48.522;9.206;2023-02-01T16:01:59;5.70;99.90
16995;DHT22;8614;48.522;9.206;2023-02-01T16:04:27;5.70;99.90
16995;DHT22;8614;48.522;9.206;2023-02-01T16:06:57;5.60;99.90
16995;DHT22;8614;48.522;9.206;2023-02-01T16:09:36;5.60;99.90
16995;DHT22;8614;48.522;9.206;2023-02-01T16:12:29;5.60;99.90
16995;DHT22;8614;48.522;9.206;2023-02-01T16:14:59;5.60;99.90
16995;DHT22;8614;48.522;9.206;2023-02-01T16:17:26;5.60;99.90
16995;DHT22;8614;48.522;9.206;2023-02-01T16:19:53;5.60;99.90
16995;DHT22;8614;48.522;9.206;2023-02-01T16:22:20;5.60;99.90
16995;DHT22;8614;48.522;9.206;2023-02-01T16:24:46;5.60;99.90
16995;DHT22;8614;48.522;9.206;2023-02-01T16:27:13;5.60;99.90
16995;DHT22;8614;48.522;9.206;2023-02-01T16:29:48;5.50;99.90
16995;DHT22;8614;48.522;9.206;2023-02-01T16:32:18;5.50;99.90
16995;DHT22;8614;48.522;9.206;2023-02-01T16:34:48;5.50;99.90
16995;DHT22;8614;48.522;9.206;2023-02-01T16:37:18;5.50;99.90
16995;DHT22;8614;48.522;9.206;2023-02-01T16:39:46;5.50;99.90
16995;DHT22;8614;48.522;9.206;2023-02-01T16:42:14;5.50;99.90
16995;DHT22;8614;48.522;9.206;2023-02-01T16:44:41;5.50;99.90
16995;DHT22;8614;48.522;9.206;2023-02-01T16:47:14;5.50;99.90
16995;DHT22;8614;48.522;9.206;2023-02-01T16:49:42;5.50;99.90
16995;DHT22;8614;48.522;9.206;2023-02-01T16:52:19;5.50;99.90
16995;DHT22;8614;48.522;9.206;2023-02-01T16:54:47;5.50;99.90
16995;DHT22;8614;48.522;9.206;2023-02-01T16:57:16;5.50;99.90
16995;DHT22;8614;48.522;9.206;2023-02-01T16:59:43;5.50;99.90
16995;DHT22;8614;48.522;9.206;2023-02-01T17:02:16;5.50;99.90
16995;DHT22;8614;48.522;9.206;2023-02-01T17:04:44;5.50;99.90
16995;DHT22;8614;48.522;9.206;2023-02-01T17:07:14;5.50;99.90
16995;DHT22;8614;48.522;9.206;2023-02-01T17:10:08;5.50;99.90
16995;DHT22;8614;48.522;9.206;2023-02-01T17:12:37;5.50;99.90
16995;DHT22;8614;48.522;9.206;2023-02-01T17:15:06;5.50;99.90
16995;DHT22;8614;48.522;9.206;2023-02-01T17:17:37;5.50;99.90
16995;DHT22;8614;48.522;9.206;2023-02-01T17:20:06;5.50;99.90
16995;DHT22;8614;48.522;9.206;2023-02-01T17:22:33;5.50;99.90
16995;DHT22;8614;48.522;9.206;2023-02-01T17:25:26;5.50;99.90
16995;DHT22;8614;48.522;9.206;2023-02-01T17:27:54;5.50;99.90
16995;DHT22;8614;48.522;9.206;2023-02-01T17:30:21;5.40;99.90
16995;DHT22;8614;48.522;9.206;2023-02-01T17:32:49;5.40;99.90
16995;DHT22;8614;48.522;9.206;2023-02-01T17:35:20;5.40;99.90
16995;DHT22;8614;48.522;9.206;2023-02-01T17:37:47;5.40;99.90
16995;DHT22;8614;48.522;9.206;2023-02-01T17:40:15;5.40;99.90
16995;DHT22;8614;48.522;9.206;2023-02-01T17:42:41;5.40;99.90
16995;DHT22;8614;48.522;9.206;2023-02-01T17:45:18;5.40;99.90
16995;DHT22;8614;48.522;9.206;2023-02-01T17:47:53;5.40;99.90
16995;DHT22;8614;48.522;9.206;2023-02-01T17:50:20;5.40;99.90
16995;DHT22;8614;48.522;9.206;2023-02-01T17:52:51;5.40;99.90
16995;DHT22;8614;48.522;9.206;2023-02-01T17:55:19;5.40;99.90
16995;DHT22;8614;48.522;9.206;2023-02-01T17:57:47;5.40;99.90
16995;DHT22;8614;48.522;9.206;2023-02-01T18:00:18;5.40;99.90
16995;DHT22;8614;48.522;9.206;2023-02-01T18:03:20;5.40;99.90
16995;DHT22;8614;48.522;9.206;2023-02-01T18:05:49;5.40;99.90
16995;DHT22;8614;48.522;9.206;2023-02-01T18:08:18;5.40;99.90
16995;DHT22;8614;48.522;9.206;2023-02-01T18:10:51;5.40;99.90
16995;DHT22;8614;48.522;9.206;2023-02-01T18:13:18;5.30;99.90
16995;DHT22;8614;48.522;9.206;2023-02-01T18:15:45;5.30;99.90
16995;DHT22;8614;48.522;9.206;2023-02-01T18:18:16;5.30;99.90
16995;DHT22;8614;48.522;9.206;2023-02-01T18:20:43;5.30;99.90
16995;DHT22;8614;48.522;9.206;2023-02-01T18:23:14;5.30;99.90
16995;DHT22;8614;48.522;9.206;2023-02-01T18:25:42;5.30;99.90
16995;DHT22;8614;48.522;9.206;2023-02-01T18:28:12;5.30;99.90
16995;DHT22;8614;48.522;9.206;2023-02-01T18:30:40;5.30;99.90
16995;DHT22;8614;48.522;9.206;2023-02-01T18:33:10;5.30;99.90
16995;DHT22;8614;48.522;9.206;2023-02-01T18:35:39;5.30;99.90
16995;DHT22;8614;48.522;9.206;2023-02-01T18:38:06;5.30;99.90
16995;DHT22;8614;48.522;9.206;2023-02-01T18:40:50;5.30;99.90
16995;DHT22;8614;48.522;9.206;2023-02-01T18:43:22;5.30;99.90
16995;DHT22;8614;48.522;9.206;2023-02-01T18:45:49;5.30;99.90
16995;DHT22;8614;48.522;9.206;2023-02-01T18:48:17;5.20;99.90
16995;DHT22;8614;48.522;9.206;2023-02-01T18:50:48;5.20;99.90
16995;DHT22;8614;48.522;9.206;2023-02-01T18:53:21;5.20;99.90
16995;DHT22;8614;48.522;9.206;2023-02-01T18:55:51;5.20;99.90
16995;DHT22;8614;48.522;9.206;2023-02-01T18:58:20;5.20;99.90
16995;DHT22;8614;48.522;9.206;2023-02-01T19:00:51;5.20;99.90
16995;DHT22;8614;48.522;9.206;2023-02-01T19:03:19;5.20;99.90
16995;DHT22;8614;48.522;9.206;2023-02-01T19:05:54;5.20;99.90
16995;DHT22;8614;48.522;9.206;2023-02-01T19:08:21;5.20;99.90
16995;DHT22;8614;48.522;9.206;2023-02-01T19:10:49;5.20;99.90
16995;DHT22;8614;48.522;9.206;2023-02-01T19:13:15;5.20;99.90
16995;DHT22;8614;48.522;9.206;2023-02-01T19:15:45;5.20;99.90
16995;DHT22;8614;48.522;9.206;2023-02-01T19:18:12;5.20;99.90
16995;DHT22;8614;48.522;9.206;2023-02-01T19:20:40;5.20;99.90
16995;DHT22;8614;48.522;9.206;2023-02-01T19:23:15;5.30;99.90
16995;DHT22;8614;48.522;9.206;2023-02-01T19:25:44;5.20;99.90
16995;DHT22;8614;48.522;9.206;2023-02-01T19:28:15;5.20;99.90
16995;DHT22;8614;48.522;9.206;2023-02-01T19:30:41;5.20;99.90
16995;DHT22;8614;48.522;9.206;2023-02-01T19:33:12;5.20;99.90
16995;DHT22;8614;48.522;9.206;2023-02-01T19:35:39;5.20;99.90
16995;DHT22;8614;48.522;9.206;2023-02-01T19:38:06;5.20;99.90
16995;DHT22;8614;48.522;9.206;2023-02-01T19:40:35;5.20;99.90
16995;DHT22;8614;48.522;9.206;2023-02-01T19:43:03;5.20;99.90
16995;DHT22;8614;48.522;9.206;2023-02-01T19:45:32;5.20;99.90